CYBU

Nipawin  Airport

Nipawin, Saskatchewan, Canada

CYBU 241600Z AUTO 31020G26KT 9SM SCT026 M09/M14 A2951 RMK PRESRR SLP021

Observed Flight Rules
Nov-24 @ 16:00 UTC (45 minutes ago)
 
Visual Flight Rules
Wind Visibility Clouds
310° at 20 knots
 Gusting to 26 knots
9 miles
  • Scattered at 2,600' AGL
Temperatures Readings
Current -9°C / 16°F
Dewpoint -14°C / 7°F
Humidity 67%
Altimeter 29.51" Hg
Pressure 1002.1 hPa
Elevation 374
Observed Flight Rules
Nov-24 @ 16:00 UTC
(45 minutes ago)
 
VFR
Wind Visibility
310° at 20 knots
 Gusting to 26 knots
9 miles
Clouds
  • Scattered at 2,600' AGL
Temperature Dewpoint
-9°C / 16°F -14°C / 7°F
Humidity Altimeter Pressure
67% 29.51" Hg 1002.1 hPa